Time;durP1;ratioP1;P1;durP2;ratioP2;P2;SDS_P1;SDS_P2;PMS_P1;PMS_P2;Temp;Humidity;BMP_temperature;BMP_pressure;BME280_temperature;BME280_humidity;BME280_pressure;Samples;Min_cycle;Max_cycle;Signal;HPM_P1;HPM_P2
2023/01/30 00:01:51;;;;;;;13.85;12.43;;;-0.70;99.90;;;;;;6187979;23;20710;-70
2023/01/30 00:04:18;;;;;;;14.05;12.15;;;-0.70;99.90;;;;;;6198366;23;20209;-69
2023/01/30 00:06:45;;;;;;;14.02;12.52;;;-0.70;99.90;;;;;;6195331;23;20301;-70
2023/01/30 00:09:14;;;;;;;14.43;12.20;;;-0.70;99.90;;;;;;6188985;23;20579;-70
2023/01/30 00:11:41;;;;;;;14.32;12.80;;;-0.80;99.90;;;;;;6188100;23;20224;-70
2023/01/30 00:14:08;;;;;;;19.08;13.45;;;-0.80;99.90;;;;;;6188103;23;20185;-71
2023/01/30 00:16:36;;;;;;;16.48;13.85;;;-0.80;99.90;;;;;;6191066;23;20277;-70
2023/01/30 00:19:04;;;;;;;15.68;12.73;;;-0.90;99.90;;;;;;6199553;23;20181;-70
2023/01/30 00:21:31;;;;;;;15.32;13.30;;;-0.90;99.90;;;;;;6209034;23;20229;-70
2023/01/30 00:23:59;;;;;;;15.70;12.85;;;-0.90;99.90;;;;;;6204625;23;20196;-70
2023/01/30 00:26:26;;;;;;;15.40;13.80;;;-0.90;99.90;;;;;;6193382;23;20244;-70
2023/01/30 00:28:53;;;;;;;14.40;12.90;;;-0.90;99.90;;;;;;6184648;23;20272;-70
2023/01/30 00:31:20;;;;;;;16.30;12.98;;;-0.90;99.90;;;;;;6180366;23;20617;-70
2023/01/30 00:33:47;;;;;;;15.75;13.00;;;-0.80;99.90;;;;;;6206355;23;20192;-70
2023/01/30 00:36:15;;;;;;;16.90;13.95;;;-0.90;99.90;;;;;;6197862;23;20589;-70
2023/01/30 00:38:42;;;;;;;15.30;13.48;;;-0.90;99.90;;;;;;6192670;23;20190;-69
2023/01/30 00:41:12;;;;;;;14.25;12.35;;;-1.00;99.90;;;;;;6181953;23;20288;-70
2023/01/30 00:49:11;;;;;;;16.00;14.32;;;-1.00;99.90;;;;;;6189953;23;20261;-69
2023/01/30 00:51:39;;;;;;;15.45;13.30;;;-1.10;99.90;;;;;;6190566;23;20216;-70
2023/01/30 00:54:06;;;;;;;15.35;12.98;;;-1.10;99.90;;;;;;6190048;23;20191;-70
2023/01/30 00:56:33;;;;;;;15.70;12.90;;;-1.10;99.90;;;;;;6192325;23;20565;-70
2023/01/30 00:59:01;;;;;;;14.73;13.13;;;-1.10;99.90;;;;;;6180448;23;20190;-70
2023/01/30 01:01:27;;;;;;;17.02;14.20;;;-1.10;99.90;;;;;;6179468;23;20285;-69
2023/01/30 01:03:54;;;;;;;15.88;13.63;;;-1.10;99.90;;;;;;6204071;23;20212;-70
2023/01/30 01:06:22;;;;;;;15.15;12.57;;;-1.10;99.90;;;;;;6196633;23;20272;-70
2023/01/30 01:08:50;;;;;;;14.98;12.73;;;-1.10;99.90;;;;;;6191274;23;20625;-70
2023/01/30 01:11:23;;;;;;;16.90;13.65;;;-1.00;99.90;;;;;;6193579;23;20262;-70
2023/01/30 01:13:52;;;;;;;17.30;12.82;;;-1.00;99.90;;;;;;6189251;23;20190;-70
2023/01/30 01:16:19;;;;;;;13.20;11.80;;;-1.00;99.90;;;;;;6192186;23;20189;-70
2023/01/30 01:18:46;;;;;;;14.50;12.93;;;-1.00;99.90;;;;;;6192185;23;20315;-70
2023/01/30 01:21:13;;;;;;;16.17;13.15;;;-0.90;99.90;;;;;;6195837;23;20296;-70
2023/01/30 01:23:40;;;;;;;15.80;13.15;;;-1.00;99.90;;;;;;6182263;23;20197;-69
2023/01/30 01:26:08;;;;;;;15.50;12.23;;;-0.90;99.90;;;;;;6184088;23;20208;-70
2023/01/30 01:28:36;;;;;;;17.33;13.15;;;-1.00;99.90;;;;;;6187132;23;20185;-70
2023/01/30 01:31:08;;;;;;;14.25;12.48;;;-0.90;99.90;;;;;;6199676;23;20244;-70
2023/01/30 01:33:35;;;;;;;15.43;13.25;;;-0.90;99.90;;;;;;6204604;23;20199;-70
2023/01/30 01:36:02;;;;;;;15.73;12.50;;;-1.00;99.90;;;;;;6183729;23;20207;-70
2023/01/30 01:38:28;;;;;;;15.43;12.35;;;-1.00;99.90;;;;;;6177632;23;20205;-70
2023/01/30 01:41:00;;;;;;;12.75;11.35;;;-0.90;99.90;;;;;;6177356;23;20301;-70
2023/01/30 01:43:32;;;;;;;14.75;13.02;;;-1.00;99.90;;;;;;6179370;23;20264;-70
2023/01/30 01:46:03;;;;;;;16.88;12.90;;;-0.90;99.90;;;;;;6178714;23;20181;-70
2023/01/30 01:48:34;;;;;;;17.02;13.90;;;-0.90;99.90;;;;;;6198095;23;20217;-70
2023/01/30 01:51:05;;;;;;;16.25;14.27;;;-0.90;99.90;;;;;;6187020;23;20577;-70
2023/01/30 01:53:36;;;;;;;15.45;13.50;;;-0.90;99.90;;;;;;6194182;23;20221;-70
2023/01/30 01:56:05;;;;;;;15.73;13.63;;;-0.90;99.90;;;;;;6202801;23;20287;-70
2023/01/30 01:58:38;;;;;;;16.08;13.63;;;-0.90;99.90;;;;;;6179031;23;20326;-70
2023/01/30 02:01:06;;;;;;;15.50;13.40;;;-0.90;99.90;;;;;;6191051;23;20573;-70
2023/01/30 02:03:40;;;;;;;16.05;14.35;;;-0.80;99.90;;;;;;6181037;23;20218;-70
2023/01/30 02:06:08;;;;;;;17.65;14.90;;;-0.80;99.90;;;;;;6197290;23;20238;-70
2023/01/30 02:08:39;;;;;;;17.33;13.60;;;-0.70;99.90;;;;;;6184408;23;20260;-70
2023/01/30 02:11:10;;;;;;;17.45;14.15;;;-0.70;99.90;;;;;;6186182;23;20293;-69
2023/01/30 02:13:39;;;;;;;15.43;13.65;;;-0.70;99.90;;;;;;6186174;23;20217;-69
2023/01/30 02:16:08;;;;;;;18.83;15.55;;;-0.60;99.90;;;;;;6198352;23;20216;-69
2023/01/30 02:18:38;;;;;;;18.23;14.80;;;-0.60;99.90;;;;;;6183007;23;20193;-69
2023/01/30 02:21:54;;;;;;;16.63;14.00;;;-0.70;99.90;;;;;;6177699;23;20217;-70
2023/01/30 02:24:56;;;;;;;21.88;16.08;;;-0.70;99.90;;;;;;6185304;23;20212;-69
2023/01/30 02:28:02;;;;;;;20.45;16.45;;;-0.80;99.90;;;;;;6192206;23;20205;-69
2023/01/30 02:31:10;;;;;;;19.50;16.20;;;-0.90;99.90;;;;;;6190036;23;20210;-70
2023/01/30 02:33:48;;;;;;;18.67;15.48;;;-0.90;99.90;;;;;;6121699;23;20255;-70
2023/01/30 02:36:21;;;;;;;20.85;16.10;;;-1.00;99.90;;;;;;6181162;23;20276;-70
2023/01/30 02:38:57;;;;;;;19.05;15.90;;;-1.00;99.90;;;;;;6189070;23;20213;-70
2023/01/30 02:41:32;;;;;;;18.60;14.90;;;-1.10;99.90;;;;;;6180231;23;20618;-70
2023/01/30 02:44:04;;;;;;;19.92;15.45;;;-1.10;99.90;;;;;;6202174;23;20537;-70
2023/01/30 02:46:43;;;;;;;17.75;15.20;;;-1.20;99.90;;;;;;6199518;23;20194;-70
2023/01/30 02:49:17;;;;;;;18.70;16.63;;;-1.20;99.90;;;;;;6198403;23;20195;-70
2023/01/30 02:51:47;;;;;;;19.15;16.10;;;-1.20;99.90;;;;;;6178989;23;20715;-70
2023/01/30 02:54:15;;;;;;;20.17;15.52;;;-1.30;99.90;;;;;;6180259;23;20221;-70
2023/01/30 02:56:45;;;;;;;18.92;15.98;;;-1.40;99.90;;;;;;6184107;23;20227;-70
2023/01/30 02:59:15;;;;;;;17.98;15.57;;;-1.40;99.90;;;;;;6183299;23;20185;-70
2023/01/30 03:02:16;;;;;;;19.60;15.65;;;-1.40;99.90;;;;;;6183641;23;20258;-70
2023/01/30 03:05:01;;;;;;;17.23;15.07;;;-1.40;99.90;;;;;;6180275;23;20276;-69
2023/01/30 03:07:40;;;;;;;16.67;14.35;;;-1.40;99.90;;;;;;6181734;23;20225;-69
2023/01/30 03:10:16;;;;;;;18.08;15.43;;;-1.40;99.90;;;;;;6187574;23;20273;-69
2023/01/30 03:12:49;;;;;;;18.70;15.95;;;-1.40;99.90;;;;;;6180407;23;20198;-69
2023/01/30 03:15:23;;;;;;;17.02;14.88;;;-1.50;99.90;;;;;;6180486;23;20277;-69
2023/01/30 03:17:52;;;;;;;17.98;15.35;;;-1.60;99.90;;;;;;6204907;23;20243;-69
2023/01/30 03:20:20;;;;;;;17.58;14.48;;;-1.60;99.90;;;;;;6189386;23;21508;-70
2023/01/30 03:22:47;;;;;;;20.25;16.17;;;-1.60;99.90;;;;;;6182000;23;20247;-69
2023/01/30 03:25:18;;;;;;;17.50;14.40;;;-1.50;99.90;;;;;;6201083;23;20232;-69
2023/01/30 03:27:45;;;;;;;17.08;14.02;;;-1.50;99.90;;;;;;6188884;23;20213;-69
2023/01/30 03:30:13;;;;;;;18.67;14.27;;;-1.40;99.90;;;;;;6182838;23;20248;-69
2023/01/30 03:32:40;;;;;;;16.10;13.80;;;-1.40;99.90;;;;;;6179705;23;20197;-70
2023/01/30 03:35:09;;;;;;;17.13;13.73;;;-1.30;99.90;;;;;;6198130;23;20268;-70
2023/01/30 03:37:37;;;;;;;16.15;13.90;;;-1.30;99.90;;;;;;6189015;23;20189;-70
2023/01/30 03:40:05;;;;;;;15.85;13.80;;;-1.20;99.90;;;;;;6188738;23;20205;-70
2023/01/30 03:42:32;;;;;;;15.25;12.57;;;-1.20;99.90;;;;;;6189878;23;20218;-70
2023/01/30 03:44:59;;;;;;;16.33;12.98;;;-1.10;99.90;;;;;;6191318;23;20575;-70
2023/01/30 03:47:26;;;;;;;17.25;12.88;;;-1.00;99.90;;;;;;6189334;23;20214;-70
2023/01/30 03:49:53;;;;;;;15.52;12.60;;;-0.90;99.90;;;;;;6184739;23;20590;-70
2023/01/30 03:52:21;;;;;;;15.15;12.65;;;-0.90;99.90;;;;;;6187073;23;20185;-70
2023/01/30 03:54:49;;;;;;;13.90;11.65;;;-0.80;99.90;;;;;;6183260;23;20185;-70
2023/01/30 03:57:15;;;;;;;14.52;11.85;;;-0.80;99.90;;;;;;6189794;23;20553;-70
2023/01/30 03:59:43;;;;;;;13.98;11.27;;;-0.80;99.90;;;;;;6197242;23;20217;-70
2023/01/30 04:02:10;;;;;;;13.23;11.60;;;-0.70;99.90;;;;;;6200180;23;20277;-70
2023/01/30 04:04:37;;;;;;;15.02;11.68;;;-0.70;99.90;;;;;;6188521;23;20194;-70
2023/01/30 04:07:04;;;;;;;12.32;10.82;;;-0.60;99.90;;;;;;6201690;23;20242;-70
2023/01/30 04:09:33;;;;;;;12.65;10.63;;;-0.50;99.90;;;;;;6189732;23;20232;-70
2023/01/30 04:12:00;;;;;;;12.48;11.13;;;-0.50;99.90;;;;;;6196374;23;20217;-70
2023/01/30 04:14:27;;;;;;;13.50;11.20;;;-0.40;99.90;;;;;;6195534;23;20186;-70
2023/01/30 04:16:54;;;;;;;12.52;10.63;;;-0.30;99.90;;;;;;6202738;23;20189;-70
2023/01/30 04:19:21;;;;;;;12.38;10.90;;;-0.30;99.90;;;;;;6181774;23;20194;-70
2023/01/30 04:21:48;;;;;;;12.27;10.60;;;-0.20;99.90;;;;;;6182740;23;20701;-70
2023/01/30 04:24:15;;;;;;;11.15;9.45;;;-0.10;99.90;;;;;;6186860;23;20190;-70
2023/01/30 04:26:43;;;;;;;11.57;9.68;;;-0.10;99.90;;;;;;6202469;23;20189;-70
2023/01/30 04:29:10;;;;;;;11.25;9.52;;;0.00;99.90;;;;;;6185462;23;20239;-70
2023/01/30 04:31:38;;;;;;;10.70;9.60;;;0.00;99.90;;;;;;6198463;23;20235;-69
2023/01/30 04:34:04;;;;;;;11.77;9.40;;;0.10;99.90;;;;;;6185845;23;20668;-70
2023/01/30 04:36:31;;;;;;;10.40;8.70;;;0.10;99.90;;;;;;6190860;23;20221;-70
2023/01/30 04:38:58;;;;;;;10.70;9.45;;;0.20;99.90;;;;;;6191028;23;20197;-70
2023/01/30 04:41:25;;;;;;;9.80;8.57;;;0.20;99.90;;;;;;6196040;23;20285;-69
2023/01/30 04:43:54;;;;;;;9.15;8.02;;;0.30;99.90;;;;;;6177142;23;20194;-70
2023/01/30 04:46:21;;;;;;;9.05;7.55;;;0.30;99.90;;;;;;6180201;23;20218;-70
2023/01/30 04:48:48;;;;;;;10.32;8.75;;;0.40;99.90;;;;;;6183757;23;20245;-70
2023/01/30 04:51:15;;;;;;;8.45;7.65;;;0.40;99.90;;;;;;6190333;23;20205;-70
2023/01/30 04:53:42;;;;;;;8.85;7.95;;;0.50;99.90;;;;;;6191163;23;20584;-70
2023/01/30 04:56:10;;;;;;;9.80;8.13;;;0.60;99.90;;;;;;6191317;23;20220;-69
2023/01/30 04:58:37;;;;;;;11.45;8.40;;;0.60;99.90;;;;;;6197006;23;20281;-70
2023/01/30 05:01:19;;;;;;;9.38;8.15;;;0.70;99.90;;;;;;6187056;23;20210;-69
2023/01/30 05:03:49;;;;;;;9.50;8.00;;;0.70;99.90;;;;;;6197061;23;20232;-70
2023/01/30 05:06:17;;;;;;;10.18;8.40;;;0.70;99.90;;;;;;6204295;23;20189;-69
2023/01/30 05:08:44;;;;;;;9.10;8.20;;;0.70;99.90;;;;;;6183988;23;20218;-70
2023/01/30 05:11:10;;;;;;;10.88;8.88;;;0.80;99.90;;;;;;6179520;23;20218;-70
2023/01/30 05:13:38;;;;;;;9.82;8.30;;;0.80;99.90;;;;;;6196493;23;20272;-70
2023/01/30 05:16:05;;;;;;;10.27;9.23;;;0.80;99.90;;;;;;6202109;23;20213;-70
2023/01/30 05:18:33;;;;;;;9.40;8.00;;;0.80;99.90;;;;;;6193097;23;20276;-70
2023/01/30 05:21:05;;;;;;;10.05;8.57;;;0.80;99.90;;;;;;6188669;23;20637;-70
2023/01/30 05:23:32;;;;;;;9.15;7.80;;;0.80;99.90;;;;;;6179248;23;20278;-70
2023/01/30 05:25:59;;;;;;;9.25;7.78;;;0.80;99.90;;;;;;6182297;23;20190;-70
2023/01/30 05:28:26;;;;;;;9.85;8.68;;;0.80;99.90;;;;;;6189663;23;20221;-71
2023/01/30 05:30:53;;;;;;;9.82;8.50;;;0.80;99.90;;;;;;6199396;23;20213;-71
2023/01/30 05:33:20;;;;;;;9.70;8.68;;;0.70;99.90;;;;;;6190649;23;20234;-71
2023/01/30 05:35:49;;;;;;;10.20;8.85;;;0.70;99.90;;;;;;6189487;23;20273;-71
2023/01/30 05:38:16;;;;;;;9.57;8.38;;;0.70;99.90;;;;;;6187114;23;20264;-70
2023/01/30 05:40:43;;;;;;;8.73;7.82;;;0.70;99.90;;;;;;6182772;23;20241;-70
2023/01/30 05:43:10;;;;;;;9.32;8.43;;;0.80;99.90;;;;;;6196346;23;20279;-71
2023/01/30 05:45:38;;;;;;;9.82;8.82;;;0.80;99.90;;;;;;6197437;23;20189;-71
2023/01/30 05:48:05;;;;;;;9.02;7.78;;;0.80;99.90;;;;;;6181116;23;20214;-73
2023/01/30 05:50:32;;;;;;;9.63;8.63;;;0.80;99.90;;;;;;6186531;23;20293;-72
2023/01/30 05:53:00;;;;;;;9.52;7.63;;;0.90;99.90;;;;;;6178097;23;20190;-70
2023/01/30 05:55:27;;;;;;;10.10;8.73;;;0.90;99.90;;;;;;6194379;23;20206;-70
2023/01/30 05:57:55;;;;;;;9.40;8.50;;;0.90;99.90;;;;;;6185222;23;20273;-71
2023/01/30 06:00:22;;;;;;;10.63;8.55;;;0.90;99.90;;;;;;6196746;23;20289;-71
2023/01/30 06:02:49;;;;;;;9.40;8.40;;;0.90;99.90;;;;;;6187303;23;20329;-70
2023/01/30 06:05:16;;;;;;;9.15;8.23;;;0.90;99.90;;;;;;6178962;23;20298;-71
2023/01/30 06:07:43;;;;;;;10.70;8.35;;;0.90;99.90;;;;;;6180798;23;20264;-70
2023/01/30 06:10:12;;;;;;;9.32;7.78;;;0.90;99.90;;;;;;6178341;23;20206;-70
2023/01/30 06:12:39;;;;;;;9.68;8.48;;;0.90;99.90;;;;;;6186151;23;20178;-69
2023/01/30 06:15:07;;;;;;;11.93;8.98;;;0.90;99.90;;;;;;6183014;23;20178;-69
2023/01/30 06:17:34;;;;;;;9.77;8.63;;;0.90;99.90;;;;;;6189468;23;20190;-69
2023/01/30 06:20:01;;;;;;;9.30;8.30;;;0.90;99.90;;;;;;6168427;23;20202;-70
2023/01/30 06:22:28;;;;;;;8.70;7.60;;;0.90;99.90;;;;;;6171311;23;20226;-70
2023/01/30 06:24:55;;;;;;;8.40;7.47;;;0.90;99.90;;;;;;6178736;23;20209;-70
2023/01/30 06:27:23;;;;;;;9.18;8.23;;;0.90;99.90;;;;;;6167848;23;20181;-69
2023/01/30 06:29:50;;;;;;;9.68;8.02;;;1.00;99.90;;;;;;6165038;23;20221;-71
2023/01/30 06:32:17;;;;;;;11.30;8.15;;;1.00;99.90;;;;;;6176866;23;20265;-71
2023/01/30 06:34:44;;;;;;;9.43;8.13;;;1.00;99.90;;;;;;6172195;23;20179;-71
2023/01/30 06:37:11;;;;;;;9.48;7.70;;;1.00;99.90;;;;;;6176082;23;20546;-69
2023/01/30 06:39:38;;;;;;;8.25;7.18;;;1.00;99.90;;;;;;6172474;23;20196;-70
2023/01/30 06:42:06;;;;;;;7.70;6.88;;;1.00;99.90;;;;;;6173536;23;20186;-70
2023/01/30 06:44:34;;;;;;;9.23;8.07;;;1.00;99.90;;;;;;6183158;23;20201;-71
2023/01/30 06:47:01;;;;;;;8.32;6.90;;;1.10;99.90;;;;;;6176040;23;20179;-70
2023/01/30 06:49:28;;;;;;;8.95;7.50;;;1.10;99.90;;;;;;6175854;23;20246;-70
2023/01/30 06:51:55;;;;;;;8.90;8.00;;;1.10;99.90;;;;;;6179266;23;20594;-71
2023/01/30 06:54:22;;;;;;;9.13;8.23;;;1.10;99.90;;;;;;6178978;23;20863;-71
2023/01/30 06:56:50;;;;;;;10.00;8.05;;;1.20;99.90;;;;;;6176754;23;20206;-71
2023/01/30 06:59:17;;;;;;;9.60;8.35;;;1.20;99.90;;;;;;6175423;23;20265;-69
2023/01/30 07:01:45;;;;;;;9.15;8.07;;;1.20;99.90;;;;;;6173684;23;20284;-70
2023/01/30 07:04:12;;;;;;;9.20;8.20;;;1.30;99.90;;;;;;6182277;23;20187;-70
2023/01/30 07:06:39;;;;;;;7.85;7.05;;;1.30;99.90;;;;;;6176142;23;20186;-71
2023/01/30 07:09:06;;;;;;;9.77;8.07;;;1.20;99.90;;;;;;6184176;23;20655;-71
2023/01/30 07:11:33;;;;;;;8.68;7.85;;;1.20;99.90;;;;;;6174967;23;20214;-70
2023/01/30 07:14:00;;;;;;;9.50;7.95;;;1.20;99.90;;;;;;6178399;23;20659;-72
2023/01/30 07:16:29;;;;;;;8.25;7.45;;;1.30;99.90;;;;;;6168748;23;20191;-71
2023/01/30 07:18:58;;;;;;;8.02;7.22;;;1.30;99.90;;;;;;6169198;23;20240;-71
2023/01/30 07:21:26;;;;;;;8.60;7.80;;;1.30;99.90;;;;;;6187530;23;20213;-71
2023/01/30 07:23:53;;;;;;;9.00;8.07;;;1.40;99.90;;;;;;6199992;23;20221;-71
2023/01/30 07:26:20;;;;;;;9.48;7.60;;;1.40;99.90;;;;;;6177995;23;20214;-72
2023/01/30 07:28:47;;;;;;;10.80;9.48;;;1.40;99.90;;;;;;6185089;23;20297;-71
2023/01/30 07:31:14;;;;;;;10.65;8.75;;;1.40;99.90;;;;;;6182214;23;20712;-72
2023/01/30 07:33:41;;;;;;;9.02;8.10;;;1.00;99.90;;;;;;6191291;23;20178;-70
2023/01/30 07:36:10;;;;;;;9.23;7.47;;;1.30;99.90;;;;;;6188249;23;20201;-71
2023/01/30 07:38:36;;;;;;;9.55;8.30;;;1.30;99.90;;;;;;6187539;23;20174;-71
2023/01/30 07:41:04;;;;;;;10.90;8.75;;;1.30;99.90;;;;;;6185144;23;20233;-70
2023/01/30 07:43:31;;;;;;;9.27;8.05;;;1.30;99.90;;;;;;6188160;23;20311;-72
2023/01/30 07:46:00;;;;;;;10.57;7.80;;;1.30;99.90;;;;;;6178562;23;20183;-71
2023/01/30 07:48:27;;;;;;;9.80;8.60;;;1.20;99.90;;;;;;6177724;23;20211;-72
2023/01/30 07:50:56;;;;;;;8.80;7.78;;;1.20;99.90;;;;;;6175552;23;20203;-71
2023/01/30 07:53:24;;;;;;;9.45;8.45;;;1.20;99.90;;;;;;6182138;23;20182;-71
2023/01/30 07:55:51;;;;;;;9.98;7.95;;;1.20;99.90;;;;;;6181628;23;20279;-71
2023/01/30 07:58:18;;;;;;;8.55;7.65;;;1.10;99.90;;;;;;6184495;23;20265;-71
2023/01/30 08:00:45;;;;;;;10.10;7.13;;;1.10;99.90;;;;;;6177451;23;20202;-71
2023/01/30 08:03:14;;;;;;;9.32;8.18;;;1.10;99.90;;;;;;6180389;23;20183;-71
2023/01/30 08:05:41;;;;;;;10.40;9.40;;;1.10;99.90;;;;;;6178928;23;20190;-71
2023/01/30 08:08:08;;;;;;;10.00;8.40;;;1.10;99.90;;;;;;6189130;23;20181;-71
2023/01/30 08:10:37;;;;;;;9.23;7.70;;;1.20;99.90;;;;;;6181988;23;20210;-72
2023/01/30 08:13:04;;;;;;;8.90;8.00;;;1.20;99.90;;;;;;6181484;23;20261;-71
2023/01/30 08:15:32;;;;;;;11.77;9.32;;;1.20;99.90;;;;;;6176980;23;20268;-71
2023/01/30 08:18:00;;;;;;;10.95;8.05;;;1.20;99.90;;;;;;6167780;23;20654;-71
2023/01/30 08:20:28;;;;;;;11.55;7.95;;;1.20;99.90;;;;;;6161467;23;20210;-71
2023/01/30 08:22:55;;;;;;;8.93;8.02;;;1.10;99.90;;;;;;6168693;23;20273;-72
2023/01/30 08:25:23;;;;;;;8.77;7.88;;;1.20;99.90;;;;;;6174062;23;20903;-71
2023/01/30 08:27:52;;;;;;;11.13;8.07;;;1.10;99.90;;;;;;6182912;23;20185;-72
2023/01/30 08:30:20;;;;;;;10.93;8.10;;;1.10;99.90;;;;;;6155692;23;20216;-71
2023/01/30 08:32:47;;;;;;;8.68;7.40;;;1.20;99.90;;;;;;6176533;23;20187;-71
2023/01/30 08:35:15;;;;;;;9.73;8.23;;;1.30;99.90;;;;;;6178807;23;20189;-71
2023/01/30 08:37:42;;;;;;;8.40;7.30;;;1.40;99.90;;;;;;6177739;23;20621;-70
2023/01/30 08:40:11;;;;;;;8.10;7.22;;;1.40;99.90;;;;;;6169791;23;20565;-70
2023/01/30 08:42:38;;;;;;;8.25;7.43;;;1.40;99.90;;;;;;6170016;23;20651;-72
2023/01/30 08:45:07;;;;;;;7.97;6.45;;;1.40;99.90;;;;;;6173305;23;20191;-71
2023/01/30 08:47:35;;;;;;;8.10;7.32;;;1.50;99.90;;;;;;6180497;23;20175;-70
2023/01/30 08:50:02;;;;;;;8.20;7.30;;;1.60;99.90;;;;;;6192571;23;20221;-80
2023/01/30 08:52:29;;;;;;;8.50;7.22;;;1.70;99.90;;;;;;6172640;23;20871;-70
2023/01/30 08:54:56;;;;;;;7.68;6.78;;;1.80;99.90;;;;;;6172866;23;20218;-71
2023/01/30 08:57:23;;;;;;;8.10;6.80;;;1.70;99.90;;;;;;6173895;23;20638;-70
2023/01/30 08:59:51;;;;;;;7.53;6.75;;;2.10;99.90;;;;;;6181323;23;20207;-70
2023/01/30 09:02:19;;;;;;;7.30;6.05;;;2.20;99.90;;;;;;6178808;23;20186;-70
2023/01/30 09:04:46;;;;;;;6.70;6.00;;;2.30;99.90;;;;;;6180397;23;20182;-70
2023/01/30 09:07:13;;;;;;;7.25;6.45;;;2.30;99.90;;;;;;6196141;23;20640;-70
2023/01/30 09:09:40;;;;;;;6.88;6.22;;;2.40;99.90;;;;;;6183496;23;20293;-71
2023/01/30 09:12:07;;;;;;;6.72;5.88;;;2.30;99.90;;;;;;6181911;23;20187;-70
2023/01/30 09:14:34;;;;;;;6.60;5.72;;;2.40;99.90;;;;;;6194622;23;20186;-71
2023/01/30 09:17:02;;;;;;;5.80;4.72;;;2.40;99.90;;;;;;6185382;23;20274;-70
2023/01/30 09:19:34;;;;;;;5.90;5.28;;;2.40;99.90;;;;;;6178892;23;20205;-71
2023/01/30 09:22:01;;;;;;;6.82;5.65;;;2.40;99.90;;;;;;6192651;23;20186;-70
2023/01/30 09:24:29;;;;;;;5.60;5.10;;;2.40;99.90;;;;;;6177184;23;20534;-71
2023/01/30 09:26:57;;;;;;;5.63;4.90;;;2.40;99.90;;;;;;6187218;23;20222;-71
2023/01/30 09:29:25;;;;;;;5.88;5.30;;;2.50;99.90;;;;;;6185572;23;20992;-71
2023/01/30 09:31:52;;;;;;;5.70;5.20;;;2.50;99.90;;;;;;6182934;23;20261;-72
2023/01/30 09:34:19;;;;;;;6.53;5.65;;;2.50;99.90;;;;;;6182628;23;20209;-71
2023/01/30 09:36:48;;;;;;;6.63;5.07;;;2.50;99.90;;;;;;6191476;23;20266;-71
2023/01/30 09:39:15;;;;;;;5.68;5.15;;;2.50;99.90;;;;;;6179024;23;20237;-71
2023/01/30 09:41:58;;;;;;;6.25;5.25;;;2.50;99.90;;;;;;6179807;23;20261;-70
2023/01/30 09:44:50;;;;;;;5.95;4.75;;;2.50;99.90;;;;;;6182660;23;20197;-70
2023/01/30 09:47:25;;;;;;;5.05;4.55;;;2.60;99.90;;;;;;6200407;23;20202;-70
2023/01/30 09:50:01;;;;;;;6.30;5.70;;;2.60;99.90;;;;;;6181164;23;20215;-70
2023/01/30 09:52:41;;;;;;;5.50;5.00;;;2.60;99.90;;;;;;6178543;23;20188;-71
2023/01/30 09:55:17;;;;;;;5.95;5.35;;;2.70;99.90;;;;;;6175143;23;20278;-71
2023/01/30 09:57:47;;;;;;;5.65;4.85;;;2.70;99.90;;;;;;6185162;23;20182;-70
2023/01/30 10:00:22;;;;;;;5.80;4.35;;;2.70;99.90;;;;;;6191045;23;20680;-74
2023/01/30 10:02:57;;;;;;;5.30;4.50;;;2.80;99.90;;;;;;6194783;23;20268;-76
2023/01/30 10:05:32;;;;;;;5.05;4.45;;;2.80;99.90;;;;;;6185777;23;20353;-74
2023/01/30 10:08:41;;;;;;;4.63;4.20;;;2.90;99.90;;;;;;6189984;23;20180;-74
2023/01/30 10:11:20;;;;;;;5.18;4.68;;;2.90;99.90;;;;;;6134434;23;20598;-75
2023/01/30 10:14:19;;;;;;;5.70;5.07;;;3.00;99.90;;;;;;6178988;23;20265;-75
2023/01/30 10:17:00;;;;;;;8.30;4.32;;;3.00;99.90;;;;;;6187645;23;20207;-75
2023/01/30 10:19:48;;;;;;;5.07;4.35;;;3.00;99.90;;;;;;6182143;23;20470;-75
2023/01/30 10:22:24;;;;;;;4.40;4.00;;;3.00;99.90;;;;;;6185024;23;20651;-76
2023/01/30 10:25:02;;;;;;;5.43;4.80;;;3.10;99.90;;;;;;6184048;23;20207;-76
2023/01/30 10:27:32;;;;;;;5.88;5.38;;;3.10;99.90;;;;;;6185752;23;20194;-75
2023/01/30 10:30:02;;;;;;;5.25;4.70;;;3.10;99.90;;;;;;6191703;23;20248;-76
2023/01/30 10:32:33;;;;;;;5.28;4.63;;;3.20;99.90;;;;;;6179307;23;20256;-75
2023/01/30 10:35:06;;;;;;;6.28;5.00;;;3.20;99.90;;;;;;6187756;23;20663;-76
2023/01/30 10:37:42;;;;;;;5.80;5.05;;;3.20;99.90;;;;;;6189520;23;20195;-75
2023/01/30 10:40:19;;;;;;;5.75;5.22;;;3.20;99.90;;;;;;6183874;23;20238;-74
2023/01/30 10:42:52;;;;;;;6.38;4.38;;;3.30;99.90;;;;;;6182053;23;20194;-76
2023/01/30 10:45:24;;;;;;;5.07;4.68;;;3.40;99.90;;;;;;6184192;23;20540;-74
2023/01/30 10:48:06;;;;;;;5.18;4.57;;;3.50;99.90;;;;;;6178599;23;20261;-76
2023/01/30 10:50:47;;;;;;;4.70;4.20;;;3.60;99.90;;;;;;6204596;23;20231;-75
2023/01/30 10:53:20;;;;;;;4.22;3.85;;;3.70;99.90;;;;;;6190048;23;20269;-77
2023/01/30 10:55:55;;;;;;;5.05;4.55;;;3.60;99.90;;;;;;6198853;23;20799;-76
2023/01/30 10:58:30;;;;;;;3.60;3.30;;;3.70;99.90;;;;;;6209112;23;20259;-75
2023/01/30 11:01:01;;;;;;;4.50;3.55;;;3.70;99.90;;;;;;6189830;23;20219;-74
2023/01/30 11:03:37;;;;;;;3.38;3.08;;;3.70;99.90;;;;;;6184380;23;20271;-75
2023/01/30 11:06:07;;;;;;;5.80;3.17;;;3.70;99.90;;;;;;6184949;23;20243;-75
2023/01/30 11:08:35;;;;;;;3.95;2.97;;;3.80;99.90;;;;;;6192063;23;20190;-76
2023/01/30 11:11:26;;;;;;;3.83;3.00;;;3.80;99.90;;;;;;6180123;23;20213;-75
2023/01/30 11:14:02;;;;;;;2.80;2.50;;;3.80;99.90;;;;;;6179381;23;20275;-76
2023/01/30 11:16:30;;;;;;;2.80;2.55;;;3.80;99.90;;;;;;6189582;23;20193;-75
2023/01/30 11:19:00;;;;;;;2.35;2.15;;;3.80;99.90;;;;;;6204681;23;20266;-76
2023/01/30 11:21:31;;;;;;;2.58;2.17;;;3.80;99.90;;;;;;6180029;23;20212;-75
2023/01/30 11:24:05;;;;;;;2.63;2.42;;;3.80;99.90;;;;;;6194251;23;20219;-75
2023/01/30 11:26:36;;;;;;;2.22;1.98;;;3.90;99.90;;;;;;6179787;23;20194;-78
2023/01/30 11:29:22;;;;;;;2.35;1.95;;;3.90;99.90;;;;;;6191563;23;20238;-75
2023/01/30 11:31:51;;;;;;;2.90;2.00;;;3.90;99.90;;;;;;6180584;23;20366;-76
2023/01/30 11:34:20;;;;;;;3.05;2.13;;;4.00;99.90;;;;;;6206026;23;20675;-76
2023/01/30 11:36:47;;;;;;;2.60;2.40;;;4.10;99.90;;;;;;6187899;23;20219;-76
2023/01/30 11:39:33;;;;;;;2.55;2.35;;;4.10;99.90;;;;;;6184904;23;20261;-75
2023/01/30 11:42:04;;;;;;;2.17;1.98;;;4.20;99.90;;;;;;6190208;23;20197;-76
2023/01/30 11:44:34;;;;;;;2.50;2.10;;;4.20;99.90;;;;;;6201531;23;20193;-75
2023/01/30 11:47:04;;;;;;;2.40;2.20;;;4.20;99.90;;;;;;6196421;23;20233;-75
2023/01/30 11:49:36;;;;;;;2.42;2.22;;;4.10;99.90;;;;;;6205085;23;20276;-76
2023/01/30 11:52:05;;;;;;;3.05;2.75;;;4.10;99.90;;;;;;6181552;23;20190;-76
2023/01/30 11:54:34;;;;;;;3.38;2.67;;;4.10;99.90;;;;;;6194878;23;20199;-76
2023/01/30 11:57:04;;;;;;;2.53;2.25;;;4.10;99.90;;;;;;6190037;23;20194;-74
2023/01/30 11:59:35;;;;;;;2.30;2.20;;;4.00;99.90;;;;;;6189247;23;20293;-76
2023/01/30 12:02:15;;;;;;;4.10;2.95;;;4.00;99.90;;;;;;6183804;23;20706;-76
2023/01/30 12:04:44;;;;;;;3.03;2.53;;;4.00;99.90;;;;;;6200183;23;20264;-76
2023/01/30 12:07:20;;;;;;;4.65;1.98;;;4.00;99.90;;;;;;6201049;23;20191;-76
2023/01/30 12:09:49;;;;;;;3.10;2.80;;;4.00;99.90;;;;;;6193665;23;20285;-75
2023/01/30 12:12:33;;;;;;;4.20;2.78;;;4.00;99.90;;;;;;6178958;23;20193;-75
2023/01/30 12:15:11;;;;;;;3.95;2.78;;;4.00;99.90;;;;;;6178529;23;20268;-75
2023/01/30 12:17:43;;;;;;;2.85;2.55;;;4.00;99.90;;;;;;6182343;23;20638;-76
2023/01/30 12:20:17;;;;;;;3.70;3.20;;;4.00;99.90;;;;;;6179816;23;20217;-75
2023/01/30 12:22:56;;;;;;;3.47;3.15;;;4.00;99.90;;;;;;6190572;23;20189;-77
2023/01/30 12:25:27;;;;;;;4.47;3.10;;;3.90;99.90;;;;;;6184755;23;20292;-76
2023/01/30 12:28:01;;;;;;;3.50;3.20;;;3.90;99.90;;;;;;6205276;23;20719;-76
2023/01/30 12:30:35;;;;;;;3.10;2.80;;;3.80;99.90;;;;;;6181428;23;20789;-76
2023/01/30 12:33:04;;;;;;;3.88;3.08;;;3.70;99.90;;;;;;6186746;23;20203;-75
2023/01/30 12:35:43;;;;;;;3.20;2.90;;;3.70;99.90;;;;;;6179626;23;20194;-75
2023/01/30 12:38:23;;;;;;;3.60;3.20;;;3.60;99.90;;;;;;6198654;23;20233;-77
2023/01/30 12:41:01;;;;;;;3.50;3.20;;;3.60;99.90;;;;;;6187343;23;20209;-75
2023/01/30 12:43:53;;;;;;;3.50;2.92;;;3.60;99.90;;;;;;6184520;23;20258;-77
2023/01/30 12:46:36;;;;;;;3.25;2.95;;;3.60;99.90;;;;;;6198508;23;20193;-77
2023/01/30 12:49:22;;;;;;;3.97;3.10;;;3.70;99.90;;;;;;6188901;23;20220;-76
2023/01/30 12:52:01;;;;;;;2.70;2.50;;;3.70;99.90;;;;;;6198385;23;20681;-76
2023/01/30 12:54:44;;;;;;;1.67;1.58;;;3.80;99.90;;;;;;6181152;23;20195;-76
2023/01/30 12:57:20;;;;;;;1.33;1.23;;;3.80;99.90;;;;;;6201755;23;20207;-76
2023/01/30 12:59:59;;;;;;;1.25;1.15;;;3.90;99.90;;;;;;6183017;23;20243;-76
2023/01/30 13:03:02;;;;;;;1.17;1.05;;;4.10;99.90;;;;;;6178844;23;20268;-75
2023/01/30 13:05:39;;;;;;;1.20;1.10;;;4.20;99.90;;;;;;6178999;23;20185;-76
2023/01/30 13:08:20;;;;;;;1.02;0.93;;;4.30;99.90;;;;;;6176392;23;20258;-76
2023/01/30 13:10:51;;;;;;;1.30;0.90;;;4.40;99.90;;;;;;6185617;23;20228;-76